Time;durP1;ratioP1;P1;durP2;ratioP2;P2;SDS_P1;SDS_P2;PMS_P1;PMS_P2;Temp;Humidity;BMP_temperature;BMP_pressure;BME280_temperature;BME280_humidity;BME280_pressure;Samples;Min_cycle;Max_cycle;Signal;HPM_P1;HPM_P2
2021/07/02 00:00:33;;;;;;;52.40;20.85;;;17.30;99.90;;;;;;5134923;27;20096;-73
2021/07/02 00:03:02;;;;;;;56.05;21.40;;;17.30;99.90;;;;;;5135276;27;20022;-74
2021/07/02 00:05:28;;;;;;;68.57;21.25;;;17.20;99.90;;;;;;5134943;27;20042;-74
2021/07/02 00:07:54;;;;;;;55.97;20.20;;;17.30;99.90;;;;;;5134797;27;20516;-74
2021/07/02 00:10:19;;;;;;;59.30;20.45;;;17.20;99.90;;;;;;5134965;27;20103;-76
2021/07/02 00:12:45;;;;;;;55.92;20.83;;;17.20;99.90;;;;;;5134656;27;20467;-75
2021/07/02 00:15:12;;;;;;;53.13;20.42;;;17.20;99.90;;;;;;5135164;27;20119;-73
2021/07/02 00:17:39;;;;;;;57.40;20.15;;;17.20;99.90;;;;;;5134854;27;20031;-75
2021/07/02 00:20:05;;;;;;;66.20;20.27;;;17.10;99.90;;;;;;5131911;27;20039;-74
2021/07/02 00:22:33;;;;;;;66.45;20.92;;;17.20;99.90;;;;;;5134530;27;20023;-73
2021/07/02 00:25:03;;;;;;;56.85;20.23;;;17.20;99.90;;;;;;5134677;27;20024;-75
2021/07/02 00:27:28;;;;;;;57.45;20.33;;;17.10;99.90;;;;;;5134748;27;20198;-75
2021/07/02 00:29:54;;;;;;;60.05;20.02;;;17.10;99.90;;;;;;5134677;27;20463;-75
2021/07/02 00:32:19;;;;;;;49.28;19.08;;;17.20;99.90;;;;;;5134514;27;20027;-75
2021/07/02 00:34:45;;;;;;;49.33;19.63;;;17.20;99.90;;;;;;5134405;27;20028;-75
2021/07/02 00:37:11;;;;;;;53.92;19.60;;;17.20;99.90;;;;;;5134228;27;20102;-74
2021/07/02 00:39:36;;;;;;;66.88;20.80;;;17.20;99.90;;;;;;5134039;27;20043;-75
2021/07/02 00:42:02;;;;;;;64.80;21.63;;;17.10;99.90;;;;;;5134606;27;20039;-75
2021/07/02 00:44:48;;;;;;;59.25;21.02;;;17.10;99.90;;;;;;5134328;27;20047;-73
2021/07/02 00:47:16;;;;;;;60.80;21.13;;;17.00;99.90;;;;;;5134202;27;20071;-74
2021/07/02 00:49:42;;;;;;;58.00;21.23;;;17.10;99.90;;;;;;5132844;27;20037;-75
2021/07/02 00:52:10;;;;;;;66.47;20.40;;;17.10;99.90;;;;;;5134025;27;20111;-74
2021/07/02 00:54:37;;;;;;;72.22;21.63;;;17.10;99.90;;;;;;5134080;27;20023;-75
2021/07/02 00:57:05;;;;;;;62.00;21.75;;;17.10;99.90;;;;;;5134247;27;20032;-75
2021/07/02 00:59:32;;;;;;;61.63;20.45;;;17.10;99.90;;;;;;5134003;27;20457;-75
2021/07/02 01:01:58;;;;;;;65.97;20.98;;;17.10;99.90;;;;;;5133756;27;20039;-75
2021/07/02 01:04:24;;;;;;;67.15;21.67;;;17.10;99.90;;;;;;5133630;27;20087;-75
2021/07/02 01:06:51;;;;;;;63.88;21.88;;;17.00;99.90;;;;;;5132321;27;20031;-73
2021/07/02 01:09:18;;;;;;;64.43;21.48;;;17.00;99.90;;;;;;5134687;27;20019;-74
2021/07/02 01:11:43;;;;;;;76.45;21.85;;;17.00;99.90;;;;;;5132535;27;20020;-74
2021/07/02 01:14:09;;;;;;;70.43;21.25;;;17.00;99.90;;;;;;5133246;27;20057;-74
2021/07/02 01:16:38;;;;;;;69.80;22.23;;;17.00;99.90;;;;;;5133752;27;20481;-74
2021/07/02 01:19:03;;;;;;;76.38;21.77;;;17.00;99.90;;;;;;5133236;27;20034;-73
2021/07/02 01:21:29;;;;;;;68.88;21.80;;;16.90;99.90;;;;;;5133172;27;20102;-74
2021/07/02 01:23:55;;;;;;;64.85;22.08;;;16.90;99.90;;;;;;5134106;27;20179;-76
2021/07/02 01:26:21;;;;;;;66.15;22.38;;;16.90;99.90;;;;;;5133516;27;20105;-74
2021/07/02 01:28:47;;;;;;;63.28;20.95;;;16.80;99.90;;;;;;5133217;27;20038;-73
2021/07/02 01:31:13;;;;;;;65.80;21.85;;;16.80;99.90;;;;;;5133079;27;20023;-73
2021/07/02 01:33:38;;;;;;;72.35;21.30;;;16.90;99.90;;;;;;5133070;27;20019;-75
2021/07/02 01:36:24;;;;;;;70.18;21.52;;;16.90;99.90;;;;;;5133164;27;20447;-74
2021/07/02 01:38:51;;;;;;;72.65;21.48;;;16.90;99.90;;;;;;5131778;27;20112;-73
2021/07/02 01:41:16;;;;;;;73.72;21.10;;;16.90;99.90;;;;;;5132845;27;20035;-73
2021/07/02 01:43:42;;;;;;;74.88;21.95;;;16.90;99.90;;;;;;5132911;27;20123;-74
2021/07/02 01:46:08;;;;;;;61.08;20.95;;;16.80;99.90;;;;;;5132955;27;20031;-73
2021/07/02 01:48:34;;;;;;;70.28;21.42;;;16.90;99.90;;;;;;5133028;27;20023;-74
2021/07/02 01:51:00;;;;;;;57.58;22.25;;;16.90;99.90;;;;;;5132394;27;20023;-73
2021/07/02 01:53:25;;;;;;;66.88;21.85;;;16.90;99.90;;;;;;5132812;27;20035;-74
2021/07/02 01:55:52;;;;;;;88.60;23.52;;;16.90;99.90;;;;;;5131359;27;20495;-75
2021/07/02 01:58:18;;;;;;;60.55;22.02;;;16.80;99.90;;;;;;5132739;27;20039;-73
2021/07/02 02:00:43;;;;;;;61.03;20.52;;;16.80;99.90;;;;;;5132628;27;20094;-73
2021/07/02 02:03:09;;;;;;;61.55;21.05;;;16.90;99.90;;;;;;5132826;27;20512;-73
2021/07/02 02:05:35;;;;;;;63.60;21.10;;;16.80;99.90;;;;;;5131649;27;20118;-74
2021/07/02 02:08:01;;;;;;;58.45;21.75;;;16.80;99.90;;;;;;5132446;27;20106;-74
2021/07/02 02:10:26;;;;;;;71.38;22.67;;;16.80;99.90;;;;;;5132295;27;20087;-74
2021/07/02 02:12:52;;;;;;;61.40;21.10;;;16.80;99.90;;;;;;5131243;27;20039;-75
2021/07/02 02:15:17;;;;;;;60.30;22.95;;;16.70;99.90;;;;;;5131406;27;20031;-73
2021/07/02 02:17:43;;;;;;;71.25;23.73;;;16.70;99.90;;;;;;5132267;27;20320;-73
2021/07/02 02:20:11;;;;;;;55.33;20.58;;;16.70;99.90;;;;;;5132158;27;20069;-74
2021/07/02 02:22:37;;;;;;;63.25;21.40;;;16.70;99.90;;;;;;5131883;27;20027;-73
2021/07/02 02:25:04;;;;;;;67.63;22.73;;;16.60;99.90;;;;;;5132210;27;20567;-73
2021/07/02 02:27:29;;;;;;;63.15;21.13;;;16.70;99.90;;;;;;5131208;27;20023;-73
2021/07/02 02:29:55;;;;;;;66.03;21.85;;;16.70;99.90;;;;;;5131680;27;20030;-73
2021/07/02 02:32:21;;;;;;;55.85;19.98;;;16.60;99.90;;;;;;5132048;27;20027;-74
2021/07/02 02:34:47;;;;;;;49.47;20.10;;;16.70;99.90;;;;;;5132320;27;20479;-74
2021/07/02 02:37:12;;;;;;;56.95;19.30;;;16.80;99.90;;;;;;5131920;27;20027;-74
2021/07/02 02:39:39;;;;;;;56.97;19.88;;;16.80;99.90;;;;;;5131915;27;20054;-73
2021/07/02 02:42:05;;;;;;;64.53;20.23;;;16.70;99.90;;;;;;5132428;27;20133;-75
2021/07/02 02:44:31;;;;;;;62.33;22.23;;;16.70;99.90;;;;;;5131683;27;20487;-75
2021/07/02 02:46:57;;;;;;;48.78;20.30;;;16.70;99.90;;;;;;5131662;27;20465;-74
2021/07/02 02:49:22;;;;;;;69.30;21.77;;;16.80;99.90;;;;;;5131967;27;20042;-75
2021/07/02 02:51:49;;;;;;;55.88;19.98;;;16.80;99.90;;;;;;5131856;27;20047;-74
2021/07/02 02:54:14;;;;;;;48.13;17.90;;;16.80;99.90;;;;;;5132232;27;20015;-74
2021/07/02 02:59:24;;;;;;;52.00;20.70;;;16.70;99.90;;;;;;5131935;27;20118;-74
2021/07/02 03:01:50;;;;;;;55.25;19.15;;;16.80;99.90;;;;;;5131562;27;20122;-73
2021/07/02 03:04:15;;;;;;;55.63;20.92;;;16.80;99.90;;;;;;5130725;27;20039;-74
2021/07/02 03:06:41;;;;;;;59.25;20.85;;;16.70;99.90;;;;;;5131708;27;20552;-73
2021/07/02 03:09:06;;;;;;;61.50;20.70;;;16.80;99.90;;;;;;5131014;27;20353;-75
2021/07/02 03:11:32;;;;;;;47.60;21.08;;;16.80;99.90;;;;;;5131527;27;20035;-73
2021/07/02 03:13:57;;;;;;;63.63;22.20;;;16.80;99.90;;;;;;5131638;27;20106;-74
2021/07/02 03:16:23;;;;;;;58.20;21.42;;;16.80;99.90;;;;;;5131541;27;20404;-74
2021/07/02 03:18:49;;;;;;;51.63;20.17;;;16.70;99.90;;;;;;5131580;27;20024;-74
2021/07/02 03:21:14;;;;;;;47.95;19.50;;;16.70;99.90;;;;;;5131925;27;20058;-74
2021/07/02 03:23:41;;;;;;;56.80;20.85;;;16.70;99.90;;;;;;5130734;27;20027;-74
2021/07/02 03:26:06;;;;;;;47.22;20.13;;;16.70;99.90;;;;;;5131438;27;20031;-73
2021/07/02 03:28:35;;;;;;;62.13;20.10;;;16.70;99.90;;;;;;5131699;27;20037;-74
2021/07/02 03:31:00;;;;;;;52.17;19.67;;;16.80;99.90;;;;;;5130369;27;20027;-74
2021/07/02 03:33:26;;;;;;;64.88;21.73;;;16.80;99.90;;;;;;5131982;27;20090;-74
2021/07/02 03:35:52;;;;;;;59.67;19.75;;;16.90;99.90;;;;;;5131382;27;20391;-75
2021/07/02 03:38:18;;;;;;;55.33;20.70;;;16.80;99.90;;;;;;5131155;27;20035;-75
2021/07/02 03:40:43;;;;;;;59.25;20.05;;;16.90;99.90;;;;;;5131247;27;20042;-73
2021/07/02 03:43:09;;;;;;;55.40;19.00;;;16.90;99.90;;;;;;5131437;27;20370;-74
2021/07/02 03:45:35;;;;;;;55.45;19.55;;;16.90;99.90;;;;;;5131441;27;20114;-75
2021/07/02 03:48:00;;;;;;;55.10;19.27;;;16.90;99.90;;;;;;5131785;27;20099;-74
2021/07/02 03:50:26;;;;;;;39.05;18.42;;;16.90;99.90;;;;;;5131340;27;20024;-72
2021/07/02 03:52:52;;;;;;;60.88;19.63;;;16.90;99.90;;;;;;5131085;27;20046;-73
2021/07/02 03:55:17;;;;;;;57.78;20.42;;;16.90;99.90;;;;;;5132900;27;20038;-72
2021/07/02 03:57:43;;;;;;;52.03;19.45;;;16.90;99.90;;;;;;5135299;27;20019;-73
2021/07/02 04:00:09;;;;;;;55.20;20.90;;;16.90;99.90;;;;;;5134176;27;20391;-73
2021/07/02 04:02:34;;;;;;;50.30;19.40;;;16.90;99.90;;;;;;5135180;27;20050;-73
2021/07/02 04:05:00;;;;;;;44.65;19.30;;;17.00;99.90;;;;;;5134922;27;20058;-74
2021/07/02 04:07:26;;;;;;;49.85;19.35;;;16.90;99.90;;;;;;5134995;27;20023;-75
2021/07/02 04:09:51;;;;;;;45.92;17.52;;;16.90;99.90;;;;;;5135131;27;20072;-73
2021/07/02 04:12:17;;;;;;;47.65;19.17;;;16.90;99.90;;;;;;5134394;27;20110;-73
2021/07/02 04:14:44;;;;;;;48.65;19.50;;;17.00;99.90;;;;;;5134413;27;20364;-73
2021/07/02 04:17:10;;;;;;;47.08;19.42;;;17.00;99.90;;;;;;5134728;27;20053;-74
2021/07/02 04:19:36;;;;;;;51.85;19.83;;;16.90;99.90;;;;;;5134765;27;20043;-74
2021/07/02 04:22:04;;;;;;;50.60;19.67;;;16.90;99.90;;;;;;5133270;27;20039;-74
2021/07/02 04:24:30;;;;;;;47.22;19.45;;;16.90;99.90;;;;;;5134562;27;20437;-75
2021/07/02 04:26:57;;;;;;;41.00;19.30;;;16.90;99.90;;;;;;5135025;27;20087;-74
2021/07/02 04:29:23;;;;;;;51.28;20.33;;;16.90;99.90;;;;;;5133516;27;20031;-73
2021/07/02 04:31:48;;;;;;;51.17;20.85;;;16.90;99.90;;;;;;5134336;27;20106;-73
2021/07/02 04:34:14;;;;;;;56.00;19.70;;;16.90;99.90;;;;;;5134366;27;20041;-74
2021/07/02 04:36:40;;;;;;;50.75;18.30;;;16.90;99.90;;;;;;5134102;27;20341;-74
2021/07/02 04:39:06;;;;;;;58.15;20.33;;;16.80;99.90;;;;;;5134326;27;20333;-73
2021/07/02 04:41:31;;;;;;;58.50;19.77;;;16.90;99.90;;;;;;5134105;27;20037;-75
2021/07/02 04:43:57;;;;;;;55.05;18.38;;;16.90;99.90;;;;;;5133751;27;20471;-75
2021/07/02 04:46:23;;;;;;;62.95;18.50;;;16.80;99.90;;;;;;5134072;27;20529;-78
2021/07/02 04:48:48;;;;;;;61.50;18.75;;;16.80;99.90;;;;;;5133995;27;20035;-74
2021/07/02 04:51:14;;;;;;;58.60;17.45;;;16.70;99.90;;;;;;5134235;27;20102;-74
2021/07/02 04:53:40;;;;;;;57.28;18.30;;;16.70;99.90;;;;;;5134131;27;20126;-72
2021/07/02 04:56:08;;;;;;;58.83;19.00;;;16.70;99.90;;;;;;5132722;27;20088;-73
2021/07/02 04:58:34;;;;;;;51.83;17.98;;;16.70;99.90;;;;;;5133028;27;20058;-73
2021/07/02 05:01:00;;;;;;;52.47;18.17;;;16.60;99.90;;;;;;5133624;27;20070;-73
2021/07/02 05:03:25;;;;;;;54.00;17.52;;;16.70;99.90;;;;;;5133225;27;20023;-73
2021/07/02 05:05:51;;;;;;;50.40;17.10;;;16.70;99.90;;;;;;5133314;27;20043;-72
2021/07/02 05:08:17;;;;;;;52.05;18.60;;;16.80;99.90;;;;;;5133707;27;20072;-75
2021/07/02 05:10:43;;;;;;;47.28;16.80;;;16.70;99.90;;;;;;5132599;27;20035;-74
2021/07/02 05:13:09;;;;;;;45.75;16.75;;;16.70;99.90;;;;;;5132372;27;20092;-74
2021/07/02 05:15:35;;;;;;;51.65;17.10;;;16.70;99.90;;;;;;5133801;27;20031;-73
2021/07/02 05:18:01;;;;;;;47.85;17.52;;;16.60;99.90;;;;;;5133858;27;20011;-77
2021/07/02 05:20:26;;;;;;;45.55;16.80;;;16.70;99.90;;;;;;5133113;27;20051;-74
2021/07/02 05:22:52;;;;;;;41.00;16.08;;;16.70;99.90;;;;;;5127825;27;20028;-73
2021/07/02 05:25:18;;;;;;;51.15;15.88;;;16.80;99.90;;;;;;5113012;28;20028;-74
2021/07/02 05:27:45;;;;;;;45.72;16.58;;;16.80;99.90;;;;;;5113078;28;20020;-74
2021/07/02 05:30:11;;;;;;;45.17;17.45;;;16.80;99.90;;;;;;5112152;28;20026;-74
2021/07/02 05:32:36;;;;;;;45.53;17.42;;;16.80;99.90;;;;;;5112420;27;20019;-74
2021/07/02 05:35:03;;;;;;;41.22;17.45;;;16.80;99.90;;;;;;5111617;28;20035;-74
2021/07/02 05:37:28;;;;;;;48.22;17.60;;;16.90;99.90;;;;;;5111361;28;20472;-75
2021/07/02 05:39:54;;;;;;;45.95;18.80;;;16.90;99.90;;;;;;5111032;28;20073;-75
2021/07/02 05:42:23;;;;;;;38.53;16.70;;;17.00;99.90;;;;;;5112608;28;20111;-74
2021/07/02 05:44:48;;;;;;;46.25;18.00;;;16.90;99.90;;;;;;5112323;28;20055;-74
2021/07/02 05:47:14;;;;;;;38.83;17.15;;;17.00;99.90;;;;;;5111979;28;20024;-73
2021/07/02 05:49:40;;;;;;;45.92;17.55;;;16.90;99.90;;;;;;5112217;28;20152;-74
2021/07/02 05:52:06;;;;;;;42.75;17.40;;;16.90;99.90;;;;;;5110903;28;20487;-74
2021/07/02 05:54:32;;;;;;;47.50;17.20;;;16.90;99.90;;;;;;5111562;28;20043;-75
2021/07/02 05:56:58;;;;;;;48.90;17.92;;;16.80;99.90;;;;;;5112211;28;20016;-76
2021/07/02 05:59:23;;;;;;;40.85;16.92;;;16.90;99.90;;;;;;5110663;28;20027;-75
2021/07/02 06:01:49;;;;;;;45.83;17.70;;;16.90;99.90;;;;;;5111532;28;20036;-74
2021/07/02 06:04:15;;;;;;;36.67;16.02;;;16.90;99.90;;;;;;5111984;28;20028;-74
2021/07/02 06:06:40;;;;;;;36.03;16.08;;;16.80;99.90;;;;;;5111611;28;20349;-74
2021/07/02 06:09:06;;;;;;;35.65;16.20;;;16.80;99.90;;;;;;5111971;28;20096;-73
2021/07/02 06:11:31;;;;;;;31.13;15.13;;;16.90;99.90;;;;;;5112185;28;20027;-73
2021/07/02 06:13:57;;;;;;;38.72;16.98;;;16.90;99.90;;;;;;5111616;28;20426;-73
2021/07/02 06:16:23;;;;;;;34.53;15.95;;;16.70;99.90;;;;;;5110541;28;20480;-74
2021/07/02 06:18:48;;;;;;;33.72;15.15;;;16.70;99.90;;;;;;5110379;28;20035;-76
2021/07/02 06:21:14;;;;;;;33.10;15.13;;;16.70;99.90;;;;;;5110546;28;20023;-74
2021/07/02 06:23:40;;;;;;;41.15;15.35;;;16.80;99.90;;;;;;5111634;28;20024;-73
2021/07/02 06:26:07;;;;;;;34.03;14.85;;;16.80;99.90;;;;;;5111746;28;20323;-73
2021/07/02 06:28:33;;;;;;;35.60;14.33;;;16.80;99.90;;;;;;5110068;28;20032;-72
2021/07/02 06:30:59;;;;;;;33.30;14.82;;;16.80;99.90;;;;;;5111218;28;20255;-73
2021/07/02 06:33:25;;;;;;;36.15;14.98;;;16.80;99.90;;;;;;5111774;28;20027;-73
2021/07/02 06:35:52;;;;;;;34.58;14.70;;;16.80;99.90;;;;;;5111044;28;20351;-73
2021/07/02 06:38:19;;;;;;;39.45;15.75;;;16.70;99.90;;;;;;5111044;28;20023;-73
2021/07/02 06:40:45;;;;;;;35.60;14.93;;;16.80;99.90;;;;;;5111521;28;20027;-72
2021/07/02 06:43:11;;;;;;;35.70;14.75;;;16.80;99.90;;;;;;5111065;28;20431;-74
2021/07/02 06:45:37;;;;;;;33.00;12.98;;;16.70;99.90;;;;;;5111331;28;20465;-73
2021/07/02 06:48:05;;;;;;;27.80;13.30;;;16.70;99.90;;;;;;5111479;28;20506;-73
2021/07/02 06:50:37;;;;;;;33.22;13.73;;;16.70;99.90;;;;;;5109747;28;20165;-73
2021/07/02 06:53:04;;;;;;;33.00;14.98;;;16.80;99.90;;;;;;5111103;28;20036;-72
2021/07/02 06:55:31;;;;;;;29.02;13.35;;;16.90;99.90;;;;;;5111272;28;20039;-73
2021/07/02 06:57:56;;;;;;;31.58;13.98;;;16.80;99.90;;;;;;5110042;28;20314;-73
2021/07/02 07:00:23;;;;;;;31.25;13.85;;;16.90;99.90;;;;;;5111271;28;20103;-74
2021/07/02 07:02:49;;;;;;;40.28;14.15;;;16.90;99.90;;;;;;5109672;28;20031;-73
2021/07/02 07:05:16;;;;;;;30.35;14.20;;;17.00;99.90;;;;;;5111205;28;20035;-74
2021/07/02 07:07:42;;;;;;;31.90;13.82;;;17.00;99.90;;;;;;5110778;28;20039;-73
2021/07/02 07:10:08;;;;;;;29.30;12.52;;;17.00;99.90;;;;;;5110483;28;20062;-75
2021/07/02 07:12:34;;;;;;;30.42;13.20;;;17.00;99.90;;;;;;5110681;28;20452;-72
2021/07/02 07:15:00;;;;;;;29.98;12.82;;;17.10;99.90;;;;;;5111178;28;20020;-74
2021/07/02 07:17:26;;;;;;;30.88;13.05;;;17.20;99.90;;;;;;5110839;28;20038;-73
2021/07/02 07:19:51;;;;;;;33.38;12.30;;;17.30;99.90;;;;;;5110689;28;20172;-73
2021/07/02 07:22:17;;;;;;;38.47;13.20;;;17.30;99.90;;;;;;5110621;28;20500;-73
2021/07/02 07:24:43;;;;;;;30.15;12.73;;;17.30;99.90;;;;;;5109426;28;20341;-74
2021/07/02 07:27:10;;;;;;;31.52;13.35;;;17.30;99.90;;;;;;5111188;28;20023;-72
2021/07/02 07:29:35;;;;;;;31.27;12.80;;;17.30;99.90;;;;;;5110977;28;20142;-72
2021/07/02 07:32:01;;;;;;;25.73;12.57;;;17.30;99.90;;;;;;5114671;28;20106;-73
2021/07/02 07:37:17;;;;;;;31.35;12.60;;;17.40;99.90;;;;;;5114985;28;20035;-74
2021/07/02 07:39:42;;;;;;;35.28;12.45;;;17.50;99.90;;;;;;5114538;28;20047;-75
2021/07/02 07:42:08;;;;;;;37.13;12.63;;;17.60;99.90;;;;;;5114970;28;20072;-72
2021/07/02 07:44:33;;;;;;;32.40;12.93;;;17.60;99.90;;;;;;5114496;28;20028;-73
2021/07/02 07:46:59;;;;;;;30.73;12.73;;;17.50;99.90;;;;;;5114261;28;20119;-72
2021/07/02 07:49:25;;;;;;;30.52;11.95;;;17.50;99.90;;;;;;5114211;28;20050;-73
2021/07/02 07:51:58;;;;;;;34.45;11.77;;;17.50;99.90;;;;;;5112885;28;20035;-73
2021/07/02 07:54:23;;;;;;;35.40;12.95;;;17.50;99.90;;;;;;5113941;28;20026;-73
2021/07/02 07:56:53;;;;;;;29.60;13.55;;;17.50;99.90;;;;;;5114195;27;20023;-73
2021/07/02 07:59:23;;;;;;;27.48;12.65;;;17.50;99.90;;;;;;5114191;28;20020;-72
2021/07/02 08:01:49;;;;;;;28.38;12.75;;;17.40;99.90;;;;;;5114248;28;20088;-73
2021/07/02 08:04:15;;;;;;;34.80;14.68;;;17.40;99.90;;;;;;5114426;28;20055;-73
2021/07/02 08:06:45;;;;;;;37.25;12.68;;;17.40;99.90;;;;;;5114430;28;20348;-72
2021/07/02 08:09:12;;;;;;;28.58;13.55;;;17.40;99.90;;;;;;5114407;28;20051;-72
2021/07/02 08:11:39;;;;;;;34.90;13.50;;;17.40;99.90;;;;;;5112434;28;20119;-77
2021/07/02 08:14:05;;;;;;;29.83;13.23;;;17.50;99.90;;;;;;5113017;28;20032;-78
2021/07/02 08:16:31;;;;;;;26.88;12.82;;;17.70;99.90;;;;;;5114014;28;20031;-76
2021/07/02 08:18:57;;;;;;;35.45;12.90;;;17.80;99.90;;;;;;5114230;28;20030;-76
2021/07/02 08:21:23;;;;;;;28.95;11.98;;;17.80;99.90;;;;;;5114371;28;20024;-76
2021/07/02 08:23:48;;;;;;;28.08;12.45;;;17.90;99.90;;;;;;5113744;28;20024;-76
2021/07/02 08:26:14;;;;;;;32.08;12.85;;;18.00;99.90;;;;;;5114086;28;20034;-78
2021/07/02 08:31:25;;;;;;;30.35;11.13;;;18.10;99.90;;;;;;5114075;28;20523;-78
2021/07/02 08:33:51;;;;;;;32.42;11.90;;;18.30;99.90;;;;;;5113634;27;20040;-80
2021/07/02 08:36:16;;;;;;;25.77;10.02;;;18.50;99.90;;;;;;5112879;28;20082;-77
2021/07/02 08:38:42;;;;;;;24.20;10.07;;;18.80;99.90;;;;;;5113708;28;20124;-85
2021/07/02 08:41:12;;;;;;;25.05;9.60;;;18.90;99.90;;;;;;5112006;28;20088;-86
2021/07/02 08:43:41;;;;;;;28.15;10.25;;;19.20;99.90;;;;;;5114308;28;20419;-78
2021/07/02 08:46:12;;;;;;;22.25;9.90;;;19.50;99.90;;;;;;5112466;28;20465;-75
2021/07/02 08:48:40;;;;;;;19.67;10.20;;;19.80;99.90;;;;;;5112336;28;20385;-75
2021/07/02 08:51:08;;;;;;;30.30;10.15;;;19.70;99.90;;;;;;5112631;28;20028;-76
2021/07/02 08:53:34;;;;;;;28.58;9.32;;;19.90;99.90;;;;;;5113183;27;20073;-75
2021/07/02 08:56:03;;;;;;;20.38;9.40;;;20.10;99.30;;;;;;5113840;27;20532;-75
2021/07/02 08:58:28;;;;;;;26.45;8.85;;;19.90;99.00;;;;;;5112965;28;20465;-74
2021/07/02 09:00:54;;;;;;;21.52;8.25;;;19.80;99.20;;;;;;5113185;28;20043;-75
2021/07/02 09:03:39;;;;;;;16.40;6.72;;;19.90;99.10;;;;;;5113874;27;20115;-75
2021/07/02 09:06:12;;;;;;;15.65;6.60;;;20.00;98.60;;;;;;5112931;28;20079;-76
2021/07/02 09:08:38;;;;;;;15.98;6.88;;;20.00;98.40;;;;;;5113381;28;20066;-74
2021/07/02 09:11:34;;;;;;;18.58;6.85;;;20.00;98.40;;;;;;5111735;28;20055;-76
2021/07/02 09:14:01;;;;;;;14.82;6.32;;;20.10;98.50;;;;;;5112611;28;20024;-75
2021/07/02 09:16:39;;;;;;;12.97;5.83;;;20.30;98.40;;;;;;5112106;28;20035;-73
2021/07/02 09:19:28;;;;;;;15.63;6.07;;;20.40;98.40;;;;;;5112972;28;20035;-75
2021/07/02 09:22:14;;;;;;;18.52;8.45;;;20.40;98.00;;;;;;5112724;28;20114;-74
2021/07/02 09:24:43;;;;;;;24.48;9.18;;;20.30;97.90;;;;;;5112826;28;20533;-75
2021/07/02 09:27:26;;;;;;;20.45;8.32;;;20.10;98.00;;;;;;5113156;28;20015;-75
2021/07/02 09:30:01;;;;;;;18.58;8.43;;;20.00;98.00;;;;;;5113194;28;20035;-76
2021/07/02 09:32:31;;;;;;;18.30;8.18;;;20.10;98.10;;;;;;5112391;28;20028;-75
2021/07/02 09:35:00;;;;;;;15.73;8.75;;;20.20;97.70;;;;;;5112641;28;20092;-76
2021/07/02 09:37:33;;;;;;;15.00;7.90;;;20.30;98.00;;;;;;5112433;28;20484;-76
2021/07/02 09:40:23;;;;;;;17.60;8.00;;;20.20;97.90;;;;;;5110883;28;20056;-75
2021/07/02 09:43:04;;;;;;;17.65;8.45;;;20.50;97.60;;;;;;5111236;28;20509;-76
2021/07/02 09:45:31;;;;;;;16.52;7.78;;;20.70;97.50;;;;;;5112257;27;20129;-74
2021/07/02 09:48:04;;;;;;;16.60;8.32;;;20.70;97.50;;;;;;5111448;28;20471;-75
2021/07/02 09:50:30;;;;;;;24.90;9.70;;;20.70;97.30;;;;;;5112110;28;20024;-75
2021/07/02 09:53:01;;;;;;;24.27;9.30;;;20.60;97.30;;;;;;5112000;28;20133;-73
2021/07/02 09:55:30;;;;;;;22.13;9.13;;;20.40;97.70;;;;;;5112266;28;20035;-73
2021/07/02 09:58:02;;;;;;;25.38;9.45;;;20.30;97.40;;;;;;5111955;28;20038;-74
2021/07/02 10:00:28;;;;;;;19.48;8.88;;;20.20;97.50;;;;;;5112302;28;20020;-74
2021/07/02 10:02:56;;;;;;;17.35;8.25;;;20.20;97.50;;;;;;5112270;28;20030;-74
2021/07/02 10:05:23;;;;;;;22.52;9.50;;;20.20;97.60;;;;;;5111751;28;20089;-74
2021/07/02 10:08:03;;;;;;;20.30;9.07;;;20.00;97.50;;;;;;5110334;28;20024;-74
2021/07/02 10:10:30;;;;;;;20.25;10.02;;;19.90;97.90;;;;;;5111456;27;20032;-74
2021/07/02 10:12:57;;;;;;;21.58;8.77;;;19.60;98.10;;;;;;5111654;28;20047;-75
2021/07/02 10:15:24;;;;;;;20.50;9.33;;;19.70;98.20;;;;;;5111908;28;20055;-73
2021/07/02 10:17:50;;;;;;;23.40;9.90;;;19.70;98.30;;;;;;5111691;28;20591;-73
2021/07/02 10:20:16;;;;;;;22.08;9.55;;;19.60;98.40;;;;;;5110394;28;20023;-75
2021/07/02 10:22:45;;;;;;;25.75;11.50;;;19.60;98.50;;;;;;5110156;28;20482;-74
2021/07/02 10:25:12;;;;;;;24.20;9.82;;;19.50;98.80;;;;;;5111852;27;20039;-75
2021/07/02 10:27:39;;;;;;;27.17;10.52;;;19.60;99.10;;;;;;5110316;28;20031;-75
2021/07/02 10:30:07;;;;;;;30.13;14.18;;;19.60;98.90;;;;;;5111715;28;20012;-75
2021/07/02 10:32:34;;;;;;;25.25;10.60;;;19.50;99.20;;;;;;5109932;28;20034;-75
2021/07/02 10:35:00;;;;;;;30.27;12.07;;;19.40;99.20;;;;;;5110139;28;20089;-75
2021/07/02 10:37:26;;;;;;;29.50;10.75;;;19.50;99.10;;;;;;5111212;28;20078;-75
2021/07/02 10:39:53;;;;;;;20.77;11.27;;;19.50;99.10;;;;;;5110059;28;20047;-75
2021/07/02 10:42:19;;;;;;;24.10;10.45;;;19.50;99.00;;;;;;5111745;28;20043;-74
2021/07/02 10:44:54;;;;;;;27.02;10.05;;;19.70;98.80;;;;;;5111391;28;20476;-75
2021/07/02 10:47:24;;;;;;;28.02;11.10;;;19.80;98.70;;;;;;5111746;28;20107;-75
2021/07/02 10:49:51;;;;;;;29.00;12.10;;;19.80;98.60;;;;;;5111277;28;20058;-75
2021/07/02 10:52:30;;;;;;;21.98;11.20;;;19.80;98.70;;;;;;5109938;28;20533;-74
2021/07/02 10:54:56;;;;;;;26.13;10.45;;;19.80;98.70;;;;;;5111266;28;20043;-75
2021/07/02 10:57:25;;;;;;;22.70;10.75;;;20.00;98.60;;;;;;5111743;28;20023;-75
2021/07/02 10:59:52;;;;;;;23.17;9.63;;;20.00;98.10;;;;;;5111429;28;20051;-75
2021/07/02 11:02:20;;;;;;;21.33;9.43;;;20.10;98.30;;;;;;5111067;28;20051;-73
2021/07/02 11:04:54;;;;;;;18.30;9.10;;;20.30;98.10;;;;;;5110404;28;20357;-74
2021/07/02 11:07:23;;;;;;;16.75;8.02;;;20.30;98.00;;;;;;5111202;28;20130;-74
2021/07/02 11:09:57;;;;;;;17.42;9.00;;;20.30;97.80;;;;;;5111106;28;20058;-74
2021/07/02 11:12:24;;;;;;;26.52;12.95;;;20.20;97.70;;;;;;5111153;28;20030;-74
2021/07/02 11:14:53;;;;;;;27.25;8.63;;;20.30;98.00;;;;;;5110768;28;20028;-74
2021/07/02 11:17:25;;;;;;;15.68;8.43;;;20.40;97.90;;;;;;5111134;28;20024;-74
2021/07/02 11:22:35;;;;;;;21.60;9.02;;;20.50;97.80;;;;;;5110829;28;20118;-75
2021/07/02 11:25:43;;;;;;;23.65;9.10;;;20.60;97.40;;;;;;5110988;28;20121;-73
2021/07/02 11:28:07;;;;;;;19.90;10.00;;;20.60;97.10;;;;;;5109910;28;20081;-75
2021/07/02 11:30:36;;;;;;;19.08;9.30;;;20.30;97.30;;;;;;5110669;28;20062;-73
2021/07/02 11:33:16;;;;;;;18.48;8.88;;;20.20;98.00;;;;;;5111885;28;20012;-74
2021/07/02 11:35:47;;;;;;;18.23;9.32;;;20.20;97.80;;;;;;5110484;28;20071;-75
2021/07/02 11:38:16;;;;;;;19.50;8.93;;;20.30;97.80;;;;;;5110534;28;20119;-75
2021/07/02 11:40:55;;;;;;;19.15;9.20;;;20.30;97.60;;;;;;5110145;28;20074;-71
2021/07/02 11:43:34;;;;;;;15.55;8.30;;;20.40;97.40;;;;;;5110771;28;20055;-71
2021/07/02 11:46:05;;;;;;;15.98;9.20;;;20.40;97.30;;;;;;5110917;28;20461;-69
2021/07/02 11:48:39;;;;;;;18.45;9.40;;;20.10;97.20;;;;;;5110826;28;20032;-68
2021/07/02 11:51:11;;;;;;;15.43;8.50;;;20.20;97.40;;;;;;5109709;28;20430;-70
2021/07/02 11:53:44;;;;;;;19.25;8.75;;;20.30;97.50;;;;;;5110689;28;20457;-69
2021/07/02 11:56:26;;;;;;;15.70;8.48;;;20.40;97.60;;;;;;5110135;28;20031;-69
2021/07/02 11:58:59;;;;;;;16.33;9.30;;;20.50;97.20;;;;;;5110405;28;20039;-70
2021/07/02 12:01:40;;;;;;;16.58;8.55;;;20.60;97.30;;;;;;5110099;28;20168;-72
2021/07/02 12:04:15;;;;;;;22.15;10.50;;;20.60;97.30;;;;;;5110138;28;20032;-70
2021/07/02 12:06:43;;;;;;;17.73;9.80;;;20.50;97.30;;;;;;5110384;28;20095;-70
2021/07/02 12:09:10;;;;;;;15.80;9.52;;;20.60;97.20;;;;;;5110663;28;20031;-70
2021/07/02 12:11:50;;;;;;;16.55;9.50;;;20.50;97.20;;;;;;5110475;28;20531;-71
2021/07/02 12:14:23;;;;;;;17.67;10.70;;;20.40;97.40;;;;;;5108989;28;20106;-69
2021/07/02 12:16:51;;;;;;;27.95;14.90;;;20.30;97.30;;;;;;5111800;28;20028;-71
2021/07/02 12:19:18;;;;;;;;;;;20.40;97.40;;;;;;5114523;28;20039;-71
2021/07/02 12:21:52;;;;;;;16.03;9.43;;;20.50;97.30;;;;;;5113837;27;19958;-70
2021/07/02 12:24:25;;;;;;;20.60;9.73;;;20.50;97.20;;;;;;5114094;28;20020;-70
2021/07/02 12:26:53;;;;;;;18.42;9.45;;;20.50;97.30;;;;;;5113582;28;20035;-71
2021/07/02 12:29:18;;;;;;;;;;;20.60;97.40;;;;;;5114241;28;20032;-71
2021/07/02 12:31:53;;;;;;;19.02;9.00;;;20.70;97.40;;;;;;5113544;28;20357;-69
2021/07/02 12:34:46;;;;;;;20.02;10.05;;;20.70;97.20;;;;;;5113484;28;20114;-69
2021/07/02 12:37:19;;;;;;;20.27;10.73;;;20.60;97.20;;;;;;5113028;28;20028;-70
2021/07/02 12:39:50;;;;;;;22.77;11.05;;;20.60;97.30;;;;;;5113007;27;20066;-70
2021/07/02 12:42:31;;;;;;;21.63;10.25;;;20.60;97.60;;;;;;5113673;28;20032;-69
2021/07/02 12:44:59;;;;;;;22.08;11.68;;;20.60;97.50;;;;;;5113393;28;20527;-70